sensor_id;sensor_type;location;lat;lon;timestamp;pressure;altitude;pressure_sealevel;temperature;humidity
22206;BME280;11272;50.104;8.754;2023-02-11T00:01:07;102661.03;;;2.47;68.77
22206;BME280;11272;50.104;8.754;2023-02-11T00:03:34;102659.53;;;2.52;68.73
22206;BME280;11272;50.104;8.754;2023-02-11T00:06:03;102650.22;;;2.59;68.77
22206;BME280;11272;50.104;8.754;2023-02-11T00:08:30;102648.63;;;2.63;68.58
22206;BME280;11272;50.104;8.754;2023-02-11T00:10:57;102641.88;;;2.68;68.78
22206;BME280;11272;50.104;8.754;2023-02-11T00:13:23;102639.53;;;2.74;69.11
22206;BME280;11272;50.104;8.754;2023-02-11T00:15:49;102643.25;;;2.79;68.89
22206;BME280;11272;50.104;8.754;2023-02-11T00:18:15;102639.13;;;2.84;68.79
22206;BME280;11272;50.104;8.754;2023-02-11T00:20:41;102642.81;;;2.87;69.27
22206;BME280;11272;50.104;8.754;2023-02-11T00:23:07;102644.72;;;2.91;69.18
22206;BME280;11272;50.104;8.754;2023-02-11T00:25:33;102645.75;;;2.95;68.96
22206;BME280;11272;50.104;8.754;2023-02-11T00:28:01;102636.31;;;2.99;69.17
22206;BME280;11272;50.104;8.754;2023-02-11T00:30:27;102639.16;;;3.03;69.03
22206;BME280;11272;50.104;8.754;2023-02-11T00:32:53;102634.84;;;3.05;68.74
22206;BME280;11272;50.104;8.754;2023-02-11T00:35:19;102628.91;;;3.09;69.10
22206;BME280;11272;50.104;8.754;2023-02-11T00:37:44;102628.13;;;3.12;69.02
22206;BME280;11272;50.104;8.754;2023-02-11T00:40:10;102620.34;;;3.13;69.08
22206;BME280;11272;50.104;8.754;2023-02-11T00:42:36;102619.63;;;3.17;68.99
22206;BME280;11272;50.104;8.754;2023-02-11T00:45:02;102618.00;;;3.19;69.14
22206;BME280;11272;50.104;8.754;2023-02-11T00:47:28;102614.59;;;3.22;68.94
22206;BME280;11272;50.104;8.754;2023-02-11T00:49:54;102608.59;;;3.24;69.08
22206;BME280;11272;50.104;8.754;2023-02-11T00:52:19;102609.53;;;3.26;69.16
22206;BME280;11272;50.104;8.754;2023-02-11T00:54:45;102604.50;;;3.31;69.28
22206;BME280;11272;50.104;8.754;2023-02-11T00:57:10;102611.69;;;3.35;69.05
22206;BME280;11272;50.104;8.754;2023-02-11T00:59:36;102593.41;;;3.38;69.25
22206;BME280;11272;50.104;8.754;2023-02-11T01:02:01;102598.81;;;3.41;69.22
22206;BME280;11272;50.104;8.754;2023-02-11T01:04:27;102599.81;;;3.45;69.01
22206;BME280;11272;50.104;8.754;2023-02-11T01:06:52;102607.78;;;3.46;68.94
22206;BME280;11272;50.104;8.754;2023-02-11T01:09:18;102608.78;;;3.50;68.93
22206;BME280;11272;50.104;8.754;2023-02-11T01:11:46;102607.97;;;3.51;68.78
22206;BME280;11272;50.104;8.754;2023-02-11T01:14:12;102602.00;;;3.55;68.99
22206;BME280;11272;50.104;8.754;2023-02-11T01:16:37;102599.53;;;3.58;68.85
22206;BME280;11272;50.104;8.754;2023-02-11T01:19:03;102593.50;;;3.60;68.88
22206;BME280;11272;50.104;8.754;2023-02-11T01:21:28;102596.19;;;3.62;68.83
22206;BME280;11272;50.104;8.754;2023-02-11T01:23:54;102585.59;;;3.60;68.79
22206;BME280;11272;50.104;8.754;2023-02-11T01:26:20;102587.53;;;3.64;69.25
22206;BME280;11272;50.104;8.754;2023-02-11T01:28:46;102593.75;;;3.66;69.28
22206;BME280;11272;50.104;8.754;2023-02-11T01:31:12;102584.25;;;3.70;68.98
22206;BME280;11272;50.104;8.754;2023-02-11T01:33:38;102581.78;;;3.73;69.05
22206;BME280;11272;50.104;8.754;2023-02-11T01:36:06;102577.44;;;3.75;68.74
22206;BME280;11272;50.104;8.754;2023-02-11T01:38:32;102576.63;;;3.76;68.90
22206;BME280;11272;50.104;8.754;2023-02-11T01:41:01;102581.94;;;3.77;68.90
22206;BME280;11272;50.104;8.754;2023-02-11T01:43:42;102577.63;;;3.79;69.38
22206;BME280;11272;50.104;8.754;2023-02-11T01:46:36;102574.25;;;3.82;68.97
22206;BME280;11272;50.104;8.754;2023-02-11T01:49:09;102569.97;;;3.84;69.35
22206;BME280;11272;50.104;8.754;2023-02-11T01:51:39;102563.84;;;3.85;68.95
22206;BME280;11272;50.104;8.754;2023-02-11T01:54:08;102562.97;;;3.85;68.91
22206;BME280;11272;50.104;8.754;2023-02-11T01:57:04;102549.78;;;3.83;68.87
22206;BME280;11272;50.104;8.754;2023-02-11T01:59:57;102559.38;;;3.83;68.79
22206;BME280;11272;50.104;8.754;2023-02-11T02:02:51;102560.94;;;3.77;69.09
22206;BME280;11272;50.104;8.754;2023-02-11T02:08:18;102542.88;;;3.64;70.00
22206;BME280;11272;50.104;8.754;2023-02-11T02:10:50;102539.16;;;3.59;70.40
22206;BME280;11272;50.104;8.754;2023-02-11T02:13:19;102531.09;;;3.55;70.56
22206;BME280;11272;50.104;8.754;2023-02-11T02:15:50;102531.88;;;3.52;70.95
22206;BME280;11272;50.104;8.754;2023-02-11T02:23:41;102515.88;;;3.46;71.88
22206;BME280;11272;50.104;8.754;2023-02-11T02:26:19;102526.41;;;3.48;72.42
22206;BME280;11272;50.104;8.754;2023-02-11T02:35:01;102515.97;;;3.49;73.13
22206;BME280;11272;50.104;8.754;2023-02-11T02:37:33;102510.72;;;3.49;73.27
22206;BME280;11272;50.104;8.754;2023-02-11T02:40:07;102518.69;;;3.51;73.72
22206;BME280;11272;50.104;8.754;2023-02-11T02:42:35;102525.72;;;3.52;73.40
22206;BME280;11272;50.104;8.754;2023-02-11T02:45:00;102524.81;;;3.51;73.78
22206;BME280;11272;50.104;8.754;2023-02-11T02:47:28;102529.28;;;3.54;73.71
22206;BME280;11272;50.104;8.754;2023-02-11T02:49:53;102537.16;;;3.54;73.87
22206;BME280;11272;50.104;8.754;2023-02-11T03:01:40;102526.81;;;3.57;74.54
22206;BME280;11272;50.104;8.754;2023-02-11T03:04:20;102521.47;;;3.55;74.30
22206;BME280;11272;50.104;8.754;2023-02-11T03:06:56;102535.44;;;3.54;74.44
22206;BME280;11272;50.104;8.754;2023-02-11T03:09:30;102534.53;;;3.54;74.02
22206;BME280;11272;50.104;8.754;2023-02-11T03:11:59;102542.50;;;3.55;73.98
22206;BME280;11272;50.104;8.754;2023-02-11T03:14:27;102531.91;;;3.54;73.89
22206;BME280;11272;50.104;8.754;2023-02-11T03:16:56;102525.00;;;3.56;73.87
22206;BME280;11272;50.104;8.754;2023-02-11T03:19:29;102526.84;;;3.58;74.28
22206;BME280;11272;50.104;8.754;2023-02-11T03:21:58;102525.25;;;3.62;74.60
22206;BME280;11272;50.104;8.754;2023-02-11T03:24:30;102525.31;;;3.63;73.99
22206;BME280;11272;50.104;8.754;2023-02-11T03:27:11;102514.88;;;3.65;74.32
22206;BME280;11272;50.104;8.754;2023-02-11T03:32:46;102500.00;;;3.65;73.91
22206;BME280;11272;50.104;8.754;2023-02-11T03:35:38;102481.63;;;3.65;73.61
22206;BME280;11272;50.104;8.754;2023-02-11T03:38:18;102483.22;;;3.62;74.04
22206;BME280;11272;50.104;8.754;2023-02-11T03:40:45;102473.44;;;3.58;73.42
22206;BME280;11272;50.104;8.754;2023-02-11T03:43:15;102478.69;;;3.58;73.79
22206;BME280;11272;50.104;8.754;2023-02-11T03:45:43;102462.88;;;3.56;73.58
22206;BME280;11272;50.104;8.754;2023-02-11T03:48:20;102453.13;;;3.54;73.53
22206;BME280;11272;50.104;8.754;2023-02-11T03:50:47;102445.25;;;3.54;73.92
22206;BME280;11272;50.104;8.754;2023-02-11T03:53:16;102436.47;;;3.53;73.50
22206;BME280;11272;50.104;8.754;2023-02-11T03:55:43;102437.31;;;3.52;73.33
22206;BME280;11272;50.104;8.754;2023-02-11T03:58:11;102435.47;;;3.50;73.80
22206;BME280;11272;50.104;8.754;2023-02-11T04:00:39;102433.63;;;3.47;73.29
22206;BME280;11272;50.104;8.754;2023-02-11T04:03:06;102444.06;;;3.46;73.37
22206;BME280;11272;50.104;8.754;2023-02-11T04:05:33;102446.63;;;3.44;73.62
22206;BME280;11272;50.104;8.754;2023-02-11T04:07:58;102450.97;;;3.44;73.62
22206;BME280;11272;50.104;8.754;2023-02-11T04:10:24;102454.50;;;3.44;73.45
22206;BME280;11272;50.104;8.754;2023-02-11T04:12:50;102463.44;;;3.49;73.66
22206;BME280;11272;50.104;8.754;2023-02-11T04:15:15;102467.94;;;3.52;73.49
22206;BME280;11272;50.104;8.754;2023-02-11T04:17:41;102472.41;;;3.54;73.45
22206;BME280;11272;50.104;8.754;2023-02-11T04:20:07;102478.69;;;3.58;73.69
22206;BME280;11272;50.104;8.754;2023-02-11T04:22:33;102481.44;;;3.61;73.63
22206;BME280;11272;50.104;8.754;2023-02-11T04:24:59;102478.03;;;3.63;73.18
22206;BME280;11272;50.104;8.754;2023-02-11T04:27:25;102486.94;;;3.67;73.58
22206;BME280;11272;50.104;8.754;2023-02-11T04:29:50;102484.38;;;3.68;73.25
22206;BME280;11272;50.104;8.754;2023-02-11T04:32:16;102493.28;;;3.72;73.55
22206;BME280;11272;50.104;8.754;2023-02-11T04:34:42;102488.13;;;3.75;73.11
22206;BME280;11272;50.104;8.754;2023-02-11T04:37:07;102480.31;;;3.76;73.62
22206;BME280;11272;50.104;8.754;2023-02-11T04:39:33;102484.81;;;3.79;73.61
22206;BME280;11272;50.104;8.754;2023-02-11T04:41:59;102472.53;;;3.79;72.96
22206;BME280;11272;50.104;8.754;2023-02-11T04:44:24;102467.34;;;3.81;73.27
22206;BME280;11272;50.104;8.754;2023-02-11T04:46:50;102450.75;;;3.82;73.31
22206;BME280;11272;50.104;8.754;2023-02-11T04:49:16;102455.16;;;3.83;73.15
22206;BME280;11272;50.104;8.754;2023-02-11T04:51:42;102445.56;;;3.84;72.94
22206;BME280;11272;50.104;8.754;2023-02-11T04:54:09;102435.88;;;3.83;72.79
22206;BME280;11272;50.104;8.754;2023-02-11T04:56:35;102442.03;;;3.83;72.68
22206;BME280;11272;50.104;8.754;2023-02-11T04:59:01;102441.97;;;3.81;72.97
22206;BME280;11272;50.104;8.754;2023-02-11T05:01:27;102439.41;;;3.83;72.79
22206;BME280;11272;50.104;8.754;2023-02-11T05:03:52;102430.69;;;3.84;72.99
22206;BME280;11272;50.104;8.754;2023-02-11T05:06:18;102435.94;;;3.84;72.68
22206;BME280;11272;50.104;8.754;2023-02-11T05:08:43;102441.19;;;3.84;72.40
22206;BME280;11272;50.104;8.754;2023-02-11T05:11:22;102441.25;;;3.86;72.45
22206;BME280;11272;50.104;8.754;2023-02-11T05:13:48;102438.63;;;3.86;72.08
22206;BME280;11272;50.104;8.754;2023-02-11T05:16:14;102431.63;;;3.86;72.64
22206;BME280;11272;50.104;8.754;2023-02-11T05:18:41;102427.34;;;3.88;72.65
22206;BME280;11272;50.104;8.754;2023-02-11T05:21:08;102432.66;;;3.90;72.31
22206;BME280;11272;50.104;8.754;2023-02-11T05:23:35;102435.28;;;3.90;72.13
22206;BME280;11272;50.104;8.754;2023-02-11T05:26:01;102440.53;;;3.90;72.06
22206;BME280;11272;50.104;8.754;2023-02-11T05:28:27;102460.66;;;3.89;72.35
22206;BME280;11272;50.104;8.754;2023-02-11T05:30:53;102455.41;;;3.89;72.28
22206;BME280;11272;50.104;8.754;2023-02-11T05:33:19;102456.25;;;3.88;71.90
22206;BME280;11272;50.104;8.754;2023-02-11T05:35:45;102445.72;;;3.88;71.96
22206;BME280;11272;50.104;8.754;2023-02-11T05:38:10;102443.94;;;3.87;71.67
22206;BME280;11272;50.104;8.754;2023-02-11T05:40:36;102450.91;;;3.87;71.82
22206;BME280;11272;50.104;8.754;2023-02-11T05:43:02;102445.59;;;3.85;71.70
22206;BME280;11272;50.104;8.754;2023-02-11T05:45:29;102448.22;;;3.85;71.88
22206;BME280;11272;50.104;8.754;2023-02-11T05:47:54;102450.81;;;3.84;71.80
22206;BME280;11272;50.104;8.754;2023-02-11T05:50:20;102456.97;;;3.84;72.01
22206;BME280;11272;50.104;8.754;2023-02-11T05:52:45;102466.63;;;3.85;71.96
22206;BME280;11272;50.104;8.754;2023-02-11T05:55:11;102467.47;;;3.84;72.07
22206;BME280;11272;50.104;8.754;2023-02-11T05:57:36;102467.50;;;3.86;71.49
22206;BME280;11272;50.104;8.754;2023-02-11T06:00:03;102465.78;;;3.86;71.59
22206;BME280;11272;50.104;8.754;2023-02-11T06:02:38;102456.19;;;3.87;71.87
22206;BME280;11272;50.104;8.754;2023-02-11T06:05:04;102446.56;;;3.87;71.72
22206;BME280;11272;50.104;8.754;2023-02-11T06:07:30;102441.38;;;3.89;71.80
22206;BME280;11272;50.104;8.754;2023-02-11T06:09:55;102437.84;;;3.88;71.71
22206;BME280;11272;50.104;8.754;2023-02-11T06:12:21;102445.66;;;3.87;71.60
22206;BME280;11272;50.104;8.754;2023-02-11T06:14:47;102449.19;;;3.87;71.94
22206;BME280;11272;50.104;8.754;2023-02-11T06:17:13;102456.25;;;3.88;71.45
22206;BME280;11272;50.104;8.754;2023-02-11T06:19:38;102459.78;;;3.89;71.83
22206;BME280;11272;50.104;8.754;2023-02-11T06:22:04;102463.28;;;3.89;71.76
22206;BME280;11272;50.104;8.754;2023-02-11T06:24:29;102458.03;;;3.89;71.47
22206;BME280;11272;50.104;8.754;2023-02-11T06:26:55;102444.91;;;3.89;71.92
22206;BME280;11272;50.104;8.754;2023-02-11T06:29:20;102452.78;;;3.89;71.35
22206;BME280;11272;50.104;8.754;2023-02-11T06:31:46;102447.47;;;3.88;71.30
22206;BME280;11272;50.104;8.754;2023-02-11T06:34:11;102444.75;;;3.86;71.41
22206;BME280;11272;50.104;8.754;2023-02-11T06:36:38;102446.38;;;3.83;71.74
22206;BME280;11272;50.104;8.754;2023-02-11T06:39:05;102440.06;;;3.77;71.39
22206;BME280;11272;50.104;8.754;2023-02-11T06:41:32;102439.91;;;3.73;71.08
22206;BME280;11272;50.104;8.754;2023-02-11T06:43:57;102449.25;;;3.66;71.02
22206;BME280;11272;50.104;8.754;2023-02-11T06:46:23;102453.44;;;3.61;70.77
22206;BME280;11272;50.104;8.754;2023-02-11T06:48:48;102453.25;;;3.57;71.40
22206;BME280;11272;50.104;8.754;2023-02-11T06:51:14;102447.03;;;3.55;71.07
22206;BME280;11272;50.104;8.754;2023-02-11T06:53:43;102449.50;;;3.50;71.65
22206;BME280;11272;50.104;8.754;2023-02-11T06:56:11;102441.44;;;3.46;71.41
22206;BME280;11272;50.104;8.754;2023-02-11T06:58:37;102439.53;;;3.42;71.25
22206;BME280;11272;50.104;8.754;2023-02-11T07:01:05;102437.72;;;3.41;71.72
22206;BME280;11272;50.104;8.754;2023-02-11T07:03:32;102436.03;;;3.43;71.45
22206;BME280;11272;50.104;8.754;2023-02-11T07:05:59;102430.94;;;3.46;71.77
22206;BME280;11272;50.104;8.754;2023-02-11T07:08:24;102428.47;;;3.50;71.91
22206;BME280;11272;50.104;8.754;2023-02-11T07:10:50;102429.47;;;3.54;71.66
22206;BME280;11272;50.104;8.754;2023-02-11T07:13:16;102429.63;;;3.57;72.00
22206;BME280;11272;50.104;8.754;2023-02-11T07:15:41;102429.66;;;3.58;71.61
22206;BME280;11272;50.104;8.754;2023-02-11T07:18:07;102434.22;;;3.62;72.08
22206;BME280;11272;50.104;8.754;2023-02-11T07:20:32;102441.44;;;3.68;71.87
22206;BME280;11272;50.104;8.754;2023-02-11T07:22:58;102447.81;;;3.74;71.44
22206;BME280;11272;50.104;8.754;2023-02-11T07:25:24;102443.84;;;3.84;71.98
22206;BME280;11272;50.104;8.754;2023-02-11T07:27:50;102441.41;;;3.90;71.54
22206;BME280;11272;50.104;8.754;2023-02-11T07:30:16;102443.56;;;4.00;71.86
22206;BME280;11272;50.104;8.754;2023-02-11T07:32:41;102449.91;;;4.05;71.63
22206;BME280;11272;50.104;8.754;2023-02-11T07:35:07;102442.19;;;4.10;71.39
22206;BME280;11272;50.104;8.754;2023-02-11T07:37:33;102444.00;;;4.12;71.24
22206;BME280;11272;50.104;8.754;2023-02-11T07:39:59;102452.06;;;4.17;71.01
22206;BME280;11272;50.104;8.754;2023-02-11T07:42:24;102439.16;;;4.23;71.37
22206;BME280;11272;50.104;8.754;2023-02-11T07:44:50;102439.44;;;4.31;71.36
22206;BME280;11272;50.104;8.754;2023-02-11T07:47:16;102454.66;;;4.39;71.26
22206;BME280;11272;50.104;8.754;2023-02-11T07:49:41;102454.09;;;4.48;71.31
22206;BME280;11272;50.104;8.754;2023-02-11T07:52:07;102453.59;;;4.58;71.11
22206;BME280;11272;50.104;8.754;2023-02-11T07:54:32;102467.97;;;4.68;71.21
22206;BME280;11272;50.104;8.754;2023-02-11T07:56:58;102465.75;;;4.80;70.77
22206;BME280;11272;50.104;8.754;2023-02-11T07:59:23;102474.97;;;4.92;70.87
22206;BME280;11272;50.104;8.754;2023-02-11T08:01:50;102479.00;;;5.08;70.56
22206;BME280;11272;50.104;8.754;2023-02-11T08:04:19;102486.34;;;5.17;70.61
22206;BME280;11272;50.104;8.754;2023-02-11T08:06:44;102491.00;;;5.25;70.16
22206;BME280;11272;50.104;8.754;2023-02-11T08:09:14;102482.47;;;5.32;69.75
22206;BME280;11272;50.104;8.754;2023-02-11T08:11:42;102477.44;;;5.40;69.46
22206;BME280;11272;50.104;8.754;2023-02-11T08:14:08;102475.00;;;5.46;69.22
22206;BME280;11272;50.104;8.754;2023-02-11T08:16:35;102482.06;;;5.47;68.85
22206;BME280;11272;50.104;8.754;2023-02-11T08:19:04;102479.50;;;5.48;68.72
22206;BME280;11272;50.104;8.754;2023-02-11T08:21:30;102483.13;;;5.52;68.61
22206;BME280;11272;50.104;8.754;2023-02-11T08:23:55;102478.81;;;5.54;68.65
22206;BME280;11272;50.104;8.754;2023-02-11T08:26:24;102477.97;;;5.55;68.40
22206;BME280;11272;50.104;8.754;2023-02-11T08:28:51;102490.38;;;5.59;68.53
22206;BME280;11272;50.104;8.754;2023-02-11T08:31:35;102503.78;;;5.67;68.36
22206;BME280;11272;50.104;8.754;2023-02-11T08:34:01;102517.22;;;5.74;67.74
22206;BME280;11272;50.104;8.754;2023-02-11T08:36:29;102515.69;;;5.81;67.83
22206;BME280;11272;50.104;8.754;2023-02-11T08:39:00;102524.81;;;5.90;67.95
22206;BME280;11272;50.104;8.754;2023-02-11T08:41:33;102526.94;;;6.02;67.54
22206;BME280;11272;50.104;8.754;2023-02-11T08:43:59;102529.78;;;6.10;66.95
22206;BME280;11272;50.104;8.754;2023-02-11T08:46:25;102525.47;;;6.12;66.83
22206;BME280;11272;50.104;8.754;2023-02-11T08:48:50;102526.44;;;6.15;66.83
22206;BME280;11272;50.104;8.754;2023-02-11T08:51:19;102530.09;;;6.19;66.46
22206;BME280;11272;50.104;8.754;2023-02-11T08:53:45;102529.97;;;6.16;66.29
22206;BME280;11272;50.104;8.754;2023-02-11T08:56:12;102523.72;;;6.12;66.09
22206;BME280;11272;50.104;8.754;2023-02-11T08:58:38;102528.94;;;6.11;65.69
22206;BME280;11272;50.104;8.754;2023-02-11T09:01:10;102522.91;;;6.15;65.54
22206;BME280;11272;50.104;8.754;2023-02-11T09:03:36;102525.66;;;6.18;66.01
22206;BME280;11272;50.104;8.754;2023-02-11T09:06:04;102524.88;;;6.22;66.01
22206;BME280;11272;50.104;8.754;2023-02-11T09:08:30;102526.94;;;6.32;65.79
22206;BME280;11272;50.104;8.754;2023-02-11T09:10:56;102530.63;;;6.37;65.45
22206;BME280;11272;50.104;8.754;2023-02-11T09:13:22;102532.66;;;6.46;65.60
22206;BME280;11272;50.104;8.754;2023-02-11T09:15:47;102536.44;;;6.55;65.33
22206;BME280;11272;50.104;8.754;2023-02-11T09:18:13;102532.44;;;6.69;65.18
22206;BME280;11272;50.104;8.754;2023-02-11T09:20:40;102527.41;;;6.77;64.72
22206;BME280;11272;50.104;8.754;2023-02-11T09:23:05;102536.38;;;6.84;64.91
22206;BME280;11272;50.104;8.754;2023-02-11T09:25:31;102532.31;;;6.96;64.61
22206;BME280;11272;50.104;8.754;2023-02-11T09:27:56;102524.91;;;7.14;64.49
22206;BME280;11272;50.104;8.754;2023-02-11T09:30:22;102534.06;;;7.29;64.42
22206;BME280;11272;50.104;8.754;2023-02-11T09:32:48;102537.06;;;7.42;63.85
22206;BME280;11272;50.104;8.754;2023-02-11T09:35:13;102540.78;;;7.50;63.56
22206;BME280;11272;50.104;8.754;2023-02-11T09:37:39;102548.03;;;7.57;63.39
22206;BME280;11272;50.104;8.754;2023-02-11T09:40:05;102554.34;;;7.64;63.14
22206;BME280;11272;50.104;8.754;2023-02-11T09:43:26;102546.44;;;7.66;62.31
22206;BME280;11272;50.104;8.754;2023-02-11T09:45:33;102542.97;;;7.67;62.66
22206;BME280;11272;50.104;8.754;2023-02-11T09:48:02;102545.81;;;7.76;62.65
22206;BME280;11272;50.104;8.754;2023-02-11T09:50:34;102534.59;;;7.86;62.28
22206;BME280;11272;50.104;8.754;2023-02-11T09:53:16;102537.72;;;8.07;62.23
22206;BME280;11272;50.104;8.754;2023-02-11T09:55:45;102528.47;;;8.26;61.42
22206;BME280;11272;50.104;8.754;2023-02-11T09:58:18;102533.28;;;8.42;61.65
22206;BME280;11272;50.104;8.754;2023-02-11T10:06:21;102528.63;;;8.74;60.60
22206;BME280;11272;50.104;8.754;2023-02-11T10:18:09;102526.31;;;8.92;59.76
22206;BME280;11272;50.104;8.754;2023-02-11T10:23:26;102513.16;;;9.45;59.38
22206;BME280;11272;50.104;8.754;2023-02-11T10:25:54;102513.34;;;9.57;58.74
22206;BME280;11272;50.104;8.754;2023-02-11T10:28:23;102514.41;;;9.68;58.48
22206;BME280;11272;50.104;8.754;2023-02-11T10:31:06;102516.06;;;9.60;58.02
22206;BME280;11272;50.104;8.754;2023-02-11T10:33:45;102523.91;;;9.54;57.76
22206;BME280;11272;50.104;8.754;2023-02-11T10:36:13;102530.91;;;9.49;57.77
22206;BME280;11272;50.104;8.754;2023-02-11T10:38:40;102534.19;;;9.36;57.50
22206;BME280;11272;50.104;8.754;2023-02-11T10:41:16;102539.28;;;9.22;57.61
22206;BME280;11272;50.104;8.754;2023-02-11T10:43:42;102545.34;;;9.16;57.88
22206;BME280;11272;50.104;8.754;2023-02-11T10:46:17;102540.78;;;9.08;57.98
22206;BME280;11272;50.104;8.754;2023-02-11T10:48:50;102541.47;;;8.99;57.87
22206;BME280;11272;50.104;8.754;2023-02-11T10:51:28;102541.25;;;8.87;57.55
22206;BME280;11272;50.104;8.754;2023-02-11T10:54:17;102542.69;;;8.71;57.72
22206;BME280;11272;50.104;8.754;2023-02-11T10:56:47;102534.53;;;8.61;58.65
22206;BME280;11272;50.104;8.754;2023-02-11T10:59:29;102529.94;;;8.52;58.50
22206;BME280;11272;50.104;8.754;2023-02-11T11:02:05;102532.38;;;8.41;58.93
22206;BME280;11272;50.104;8.754;2023-02-11T11:04:44;102530.44;;;8.34;58.62
22206;BME280;11272;50.104;8.754;2023-02-11T11:07:27;102526.91;;;8.32;59.40
22206;BME280;11272;50.104;8.754;2023-02-11T11:09:57;102531.28;;;8.32;59.24
22206;BME280;11272;50.104;8.754;2023-02-11T11:12:31;102528.75;;;8.36;59.37
22206;BME280;11272;50.104;8.754;2023-02-11T11:14:58;102534.25;;;8.47;59.18
22206;BME280;11272;50.104;8.754;2023-02-11T11:17:25;102534.34;;;8.52;59.62
22206;BME280;11272;50.104;8.754;2023-02-11T11:20:24;102525.47;;;8.50;59.38
22206;BME280;11272;50.104;8.754;2023-02-11T11:23:09;102521.97;;;8.51;59.35
22206;BME280;11272;50.104;8.754;2023-02-11T11:25:42;102535.88;;;8.40;59.45
22206;BME280;11272;50.104;8.754;2023-02-11T11:28:22;102533.94;;;8.33;59.78
22206;BME280;11272;50.104;8.754;2023-02-11T11:30:50;102532.34;;;8.40;59.89
22206;BME280;11272;50.104;8.754;2023-02-11T11:33:20;102526.50;;;8.55;59.80
22206;BME280;11272;50.104;8.754;2023-02-11T11:36:00;102518.91;;;8.73;60.09
22206;BME280;11272;50.104;8.754;2023-02-11T11:38:28;102514.78;;;8.88;59.84
22206;BME280;11272;50.104;8.754;2023-02-11T11:43:39;102504.88;;;9.26;59.08
22206;BME280;11272;50.104;8.754;2023-02-11T11:46:05;102505.03;;;9.36;59.22
22206;BME280;11272;50.104;8.754;2023-02-11T11:48:37;102513.78;;;9.30;58.84
22206;BME280;11272;50.104;8.754;2023-02-11T11:51:05;102507.56;;;9.28;59.16
22206;BME280;11272;50.104;8.754;2023-02-11T11:54:14;102505.91;;;9.35;58.96
22206;BME280;11272;50.104;8.754;2023-02-11T11:57:01;102501.50;;;9.37;58.80
22206;BME280;11272;50.104;8.754;2023-02-11T11:59:28;102500.66;;;9.38;59.06
22206;BME280;11272;50.104;8.754;2023-02-11T12:02:10;102497.88;;;9.30;58.41
22206;BME280;11272;50.104;8.754;2023-02-11T12:04:53;102503.81;;;9.15;59.33
22206;BME280;11272;50.104;8.754;2023-02-11T12:13:25;102483.72;;;9.29;59.34
22206;BME280;11272;50.104;8.754;2023-02-11T12:16:03;102472.41;;;9.40;58.87
22206;BME280;11272;50.104;8.754;2023-02-11T12:18:54;102484.88;;;9.47;59.00
22206;BME280;11272;50.104;8.754;2023-02-11T12:21:35;102476.25;;;9.58;59.31
22206;BME280;11272;50.104;8.754;2023-02-11T12:27:03;102489.91;;;9.84;58.74
22206;BME280;11272;50.104;8.754;2023-02-11T12:39:09;102499.69;;;9.88;58.09
22206;BME280;11272;50.104;8.754;2023-02-11T12:41:36;102500.31;;;9.70;57.77
22206;BME280;11272;50.104;8.754;2023-02-11T12:44:35;102491.31;;;9.62;57.82
22206;BME280;11272;50.104;8.754;2023-02-11T12:52:54;102484.09;;;9.51;58.38
22206;BME280;11272;50.104;8.754;2023-02-11T12:55:30;102477.88;;;9.49;58.34
22206;BME280;11272;50.104;8.754;2023-02-11T12:58:01;102476.06;;;9.48;58.32
22206;BME280;11272;50.104;8.754;2023-02-11T13:00:54;102467.31;;;9.53;58.44
22206;BME280;11272;50.104;8.754;2023-02-11T13:03:43;102469.97;;;9.53;58.74
22206;BME280;11272;50.104;8.754;2023-02-11T13:06:17;102475.31;;;9.56;59.19
22206;BME280;11272;50.104;8.754;2023-02-11T13:08:59;102461.16;;;9.54;58.74
22206;BME280;11272;50.104;8.754;2023-02-11T13:11:29;102467.25;;;9.49;58.94
22206;BME280;11272;50.104;8.754;2023-02-11T13:14:14;102460.16;;;9.48;59.52
22206;BME280;11272;50.104;8.754;2023-02-11T13:16:44;102467.16;;;9.43;58.80
22206;BME280;11272;50.104;8.754;2023-02-11T13:19:30;102460.91;;;9.41;59.60
22206;BME280;11272;50.104;8.754;2023-02-11T13:22:18;102462.69;;;9.40;58.92
22206;BME280;11272;50.104;8.754;2023-02-11T13:25:47;102459.16;;;9.40;59.80
22206;BME280;11272;50.104;8.754;2023-02-11T13:27:57;102459.94;;;9.36;59.82
22206;BME280;11272;50.104;8.754;2023-02-11T13:30:29;102463.41;;;9.30;59.99
22206;BME280;11272;50.104;8.754;2023-02-11T13:37:55;102451.03;;;9.29;60.17
22206;BME280;11272;50.104;8.754;2023-02-11T13:40:25;102445.63;;;9.24;60.53
22206;BME280;11272;50.104;8.754;2023-02-11T13:42:59;102443.84;;;9.22;60.74
22206;BME280;11272;50.104;8.754;2023-02-11T13:45:46;102442.97;;;9.23;60.45
22206;BME280;11272;50.104;8.754;2023-02-11T13:48:24;102451.72;;;9.19;60.70
22206;BME280;11272;50.104;8.754;2023-02-11T13:50:54;102450.91;;;9.21;60.96
22206;BME280;11272;50.104;8.754;2023-02-11T13:53:21;102442.19;;;9.28;60.47
22206;BME280;11272;50.104;8.754;2023-02-11T13:55:52;102442.13;;;9.25;60.67
22206;BME280;11272;50.104;8.754;2023-02-11T13:58:33;102439.31;;;9.16;61.11
22206;BME280;11272;50.104;8.754;2023-02-11T14:01:02;102437.50;;;9.14;60.79
22206;BME280;11272;50.104;8.754;2023-02-11T14:03:31;102448.16;;;9.17;61.07
22206;BME280;11272;50.104;8.754;2023-02-11T14:06:19;102443.75;;;9.17;61.70
22206;BME280;11272;50.104;8.754;2023-02-11T14:11:48;102447.28;;;9.16;61.38
22206;BME280;11272;50.104;8.754;2023-02-11T14:14:28;102451.66;;;9.14;61.01
22206;BME280;11272;50.104;8.754;2023-02-11T14:19:36;102447.25;;;9.15;61.60
22206;BME280;11272;50.104;8.754;2023-02-11T14:27:10;102456.06;;;9.14;61.96
22206;BME280;11272;50.104;8.754;2023-02-11T14:30:06;102454.38;;;9.17;62.08
22206;BME280;11272;50.104;8.754;2023-02-11T14:32:49;102463.22;;;9.19;61.87
22206;BME280;11272;50.104;8.754;2023-02-11T14:35:40;102465.00;;;9.20;61.93
22206;BME280;11272;50.104;8.754;2023-02-11T14:41:09;102467.75;;;9.26;61.92
22206;BME280;11272;50.104;8.754;2023-02-11T14:43:48;102462.44;;;9.25;62.27
22206;BME280;11272;50.104;8.754;2023-02-11T14:46:17;102462.50;;;9.28;62.16